sensor_id;sensor_type;location;lat;lon;timestamp;temperature;humidity
17128;DHT22;8679;50.842;4.322;2024-01-15T11:59:12;1.50;99.90
17128;DHT22;8679;50.842;4.322;2024-01-15T12:06:29;5.60;99.90
17128;DHT22;8679;50.842;4.322;2024-01-15T13:59:04;5.70;99.90
17128;DHT22;8679;50.842;4.322;2024-01-15T14:01:31;4.60;99.90
17128;DHT22;8679;50.842;4.322;2024-01-15T14:03:56;4.40;99.90
17128;DHT22;8679;50.842;4.322;2024-01-15T14:06:22;4.20;99.90
17128;DHT22;8679;50.842;4.322;2024-01-15T14:08:48;4.10;99.90
17128;DHT22;8679;50.842;4.322;2024-01-15T14:11:13;4.00;99.90
17128;DHT22;8679;50.842;4.322;2024-01-15T14:13:39;4.00;99.90
17128;DHT22;8679;50.842;4.322;2024-01-15T14:16:05;4.00;99.90
17128;DHT22;8679;50.842;4.322;2024-01-15T14:18:30;4.10;99.90
17128;DHT22;8679;50.842;4.322;2024-01-15T14:20:56;4.30;99.90
17128;DHT22;8679;50.842;4.322;2024-01-15T14:23:22;4.30;99.90
17128;DHT22;8679;50.842;4.322;2024-01-15T14:25:47;4.40;99.90
17128;DHT22;8679;50.842;4.322;2024-01-15T14:28:13;4.30;99.90
17128;DHT22;8679;50.842;4.322;2024-01-15T14:30:38;4.30;99.90
17128;DHT22;8679;50.842;4.322;2024-01-15T14:33:04;4.20;99.90
17128;DHT22;8679;50.842;4.322;2024-01-15T14:35:30;4.20;99.90
17128;DHT22;8679;50.842;4.322;2024-01-15T14:37:56;4.10;99.90
17128;DHT22;8679;50.842;4.322;2024-01-15T14:40:24;3.80;99.90
17128;DHT22;8679;50.842;4.322;2024-01-15T14:42:50;3.50;99.90
17128;DHT22;8679;50.842;4.322;2024-01-15T14:45:17;3.20;99.90
17128;DHT22;8679;50.842;4.322;2024-01-15T14:47:42;3.10;99.90
17128;DHT22;8679;50.842;4.322;2024-01-15T14:50:09;3.10;99.90
17128;DHT22;8679;50.842;4.322;2024-01-15T14:52:36;3.00;99.90
17128;DHT22;8679;50.842;4.322;2024-01-15T14:55:01;3.00;99.90
17128;DHT22;8679;50.842;4.322;2024-01-15T14:57:27;3.00;99.90
17128;DHT22;8679;50.842;4.322;2024-01-15T14:59:53;2.90;99.90
17128;DHT22;8679;50.842;4.322;2024-01-15T15:02:19;2.90;99.90
17128;DHT22;8679;50.842;4.322;2024-01-15T15:04:45;2.80;99.90
17128;DHT22;8679;50.842;4.322;2024-01-15T15:07:11;2.80;99.90
17128;DHT22;8679;50.842;4.322;2024-01-15T15:09:37;2.70;99.90
17128;DHT22;8679;50.842;4.322;2024-01-15T18:12:37;2.70;99.90
17128;DHT22;8679;50.842;4.322;2024-01-15T18:15:03;1.80;99.90
17128;DHT22;8679;50.842;4.322;2024-01-15T18:17:29;1.80;99.90
17128;DHT22;8679;50.842;4.322;2024-01-15T18:19:55;1.80;99.90
17128;DHT22;8679;50.842;4.322;2024-01-15T18:22:21;1.80;99.90
17128;DHT22;8679;50.842;4.322;2024-01-15T18:24:47;1.80;99.90
17128;DHT22;8679;50.842;4.322;2024-01-15T18:27:15;2.00;99.90
17128;DHT22;8679;50.842;4.322;2024-01-15T18:29:40;1.90;99.90
17128;DHT22;8679;50.842;4.322;2024-01-15T18:32:06;1.90;99.90
17128;DHT22;8679;50.842;4.322;2024-01-15T18:34:32;1.90;99.90
17128;DHT22;8679;50.842;4.322;2024-01-15T18:36:58;1.90;99.90
17128;DHT22;8679;50.842;4.322;2024-01-15T18:39:24;1.90;99.90
17128;DHT22;8679;50.842;4.322;2024-01-15T18:41:49;1.90;99.90
17128;DHT22;8679;50.842;4.322;2024-01-15T18:44:15;1.90;99.90
17128;DHT22;8679;50.842;4.322;2024-01-15T18:46:41;1.80;99.90
17128;DHT22;8679;50.842;4.322;2024-01-15T18:49:09;1.80;99.90
17128;DHT22;8679;50.842;4.322;2024-01-15T18:51:35;1.80;99.90
17128;DHT22;8679;50.842;4.322;2024-01-15T18:54:01;1.80;99.90
17128;DHT22;8679;50.842;4.322;2024-01-15T18:56:27;1.80;99.90
17128;DHT22;8679;50.842;4.322;2024-01-15T18:58:52;1.70;99.90
17128;DHT22;8679;50.842;4.322;2024-01-15T19:01:28;1.70;99.90
17128;DHT22;8679;50.842;4.322;2024-01-15T19:03:55;1.70;99.90
17128;DHT22;8679;50.842;4.322;2024-01-15T19:06:21;1.80;99.90
17128;DHT22;8679;50.842;4.322;2024-01-15T19:08:47;1.80;99.90
17128;DHT22;8679;50.842;4.322;2024-01-15T19:11:13;1.90;99.90
17128;DHT22;8679;50.842;4.322;2024-01-15T19:13:41;1.80;99.90
17128;DHT22;8679;50.842;4.322;2024-01-15T19:16:06;1.90;99.90
17128;DHT22;8679;50.842;4.322;2024-01-15T19:18:32;1.90;99.90
17128;DHT22;8679;50.842;4.322;2024-01-15T19:20:59;1.90;99.90
17128;DHT22;8679;50.842;4.322;2024-01-15T19:23:26;1.90;99.90
17128;DHT22;8679;50.842;4.322;2024-01-15T19:25:53;1.90;99.90
17128;DHT22;8679;50.842;4.322;2024-01-15T19:28:18;1.90;99.90
17128;DHT22;8679;50.842;4.322;2024-01-15T19:30:44;2.00;99.90
17128;DHT22;8679;50.842;4.322;2024-01-15T19:33:10;2.00;99.90
17128;DHT22;8679;50.842;4.322;2024-01-15T19:35:36;2.00;99.90
17128;DHT22;8679;50.842;4.322;2024-01-15T19:38:01;2.00;99.90
17128;DHT22;8679;50.842;4.322;2024-01-15T19:40:29;1.90;99.90
17128;DHT22;8679;50.842;4.322;2024-01-15T19:42:55;2.00;99.90
17128;DHT22;8679;50.842;4.322;2024-01-15T19:45:21;2.00;99.90
17128;DHT22;8679;50.842;4.322;2024-01-15T19:47:46;2.00;99.90
17128;DHT22;8679;50.842;4.322;2024-01-15T19:50:12;2.00;99.90
17128;DHT22;8679;50.842;4.322;2024-01-15T19:52:38;2.00;99.90
17128;DHT22;8679;50.842;4.322;2024-01-15T19:55:05;2.00;99.90
17128;DHT22;8679;50.842;4.322;2024-01-15T19:57:31;2.00;99.90
17128;DHT22;8679;50.842;4.322;2024-01-15T19:59:57;2.00;99.90
17128;DHT22;8679;50.842;4.322;2024-01-15T20:02:23;2.00;99.90
17128;DHT22;8679;50.842;4.322;2024-01-15T20:04:49;2.00;99.90
17128;DHT22;8679;50.842;4.322;2024-01-15T20:07:15;2.10;99.90
17128;DHT22;8679;50.842;4.322;2024-01-15T20:09:40;2.00;99.90
17128;DHT22;8679;50.842;4.322;2024-01-15T20:12:07;2.00;99.90
17128;DHT22;8679;50.842;4.322;2024-01-15T20:14:32;2.00;99.90
17128;DHT22;8679;50.842;4.322;2024-01-15T20:16:58;2.00;99.90
17128;DHT22;8679;50.842;4.322;2024-01-15T20:19:25;2.00;99.90
17128;DHT22;8679;50.842;4.322;2024-01-15T20:21:51;2.00;99.90
17128;DHT22;8679;50.842;4.322;2024-01-15T20:24:17;2.00;99.90
17128;DHT22;8679;50.842;4.322;2024-01-15T20:26:45;2.00;99.90
17128;DHT22;8679;50.842;4.322;2024-01-15T20:29:10;2.10;99.90
17128;DHT22;8679;50.842;4.322;2024-01-15T20:31:36;2.10;99.90
17128;DHT22;8679;50.842;4.322;2024-01-15T20:34:02;2.10;99.90
17128;DHT22;8679;50.842;4.322;2024-01-15T20:36:27;2.10;99.90
17128;DHT22;8679;50.842;4.322;2024-01-15T20:38:54;2.10;99.90
17128;DHT22;8679;50.842;4.322;2024-01-15T20:41:21;2.10;99.90
17128;DHT22;8679;50.842;4.322;2024-01-15T20:43:47;2.00;99.90
17128;DHT22;8679;50.842;4.322;2024-01-15T20:46:13;2.10;99.90
17128;DHT22;8679;50.842;4.322;2024-01-15T20:48:39;2.00;99.90
17128;DHT22;8679;50.842;4.322;2024-01-15T20:51:04;2.00;99.90
17128;DHT22;8679;50.842;4.322;2024-01-15T20:53:31;2.10;99.90
17128;DHT22;8679;50.842;4.322;2024-01-15T20:55:57;2.00;99.90
17128;DHT22;8679;50.842;4.322;2024-01-15T20:58:23;2.00;99.90
17128;DHT22;8679;50.842;4.322;2024-01-15T21:00:49;2.00;99.90
17128;DHT22;8679;50.842;4.322;2024-01-15T21:03:15;2.00;99.90
17128;DHT22;8679;50.842;4.322;2024-01-15T21:05:42;2.00;99.90
17128;DHT22;8679;50.842;4.322;2024-01-15T21:08:08;2.00;99.90
17128;DHT22;8679;50.842;4.322;2024-01-15T21:10:34;2.00;99.90
17128;DHT22;8679;50.842;4.322;2024-01-15T21:13:00;2.00;99.90
17128;DHT22;8679;50.842;4.322;2024-01-15T21:15:26;2.00;99.90
17128;DHT22;8679;50.842;4.322;2024-01-15T21:17:51;2.10;99.90
17128;DHT22;8679;50.842;4.322;2024-01-15T21:20:18;2.10;99.90
17128;DHT22;8679;50.842;4.322;2024-01-15T21:22:44;2.10;99.90
17128;DHT22;8679;50.842;4.322;2024-01-15T21:25:09;2.10;99.90
17128;DHT22;8679;50.842;4.322;2024-01-15T21:27:36;2.10;99.90
17128;DHT22;8679;50.842;4.322;2024-01-15T21:30:05;2.10;99.90
17128;DHT22;8679;50.842;4.322;2024-01-15T21:32:31;2.20;99.90
17128;DHT22;8679;50.842;4.322;2024-01-15T21:34:57;2.20;99.90
17128;DHT22;8679;50.842;4.322;2024-01-15T21:37:22;2.20;99.90
17128;DHT22;8679;50.842;4.322;2024-01-15T21:39:48;2.20;99.90
17128;DHT22;8679;50.842;4.322;2024-01-15T21:42:14;2.20;99.90
17128;DHT22;8679;50.842;4.322;2024-01-15T21:44:39;2.20;99.90
17128;DHT22;8679;50.842;4.322;2024-01-15T21:47:05;2.20;99.90
17128;DHT22;8679;50.842;4.322;2024-01-15T21:49:31;2.20;99.90
17128;DHT22;8679;50.842;4.322;2024-01-15T21:51:57;2.20;99.90
17128;DHT22;8679;50.842;4.322;2024-01-15T21:54:23;2.20;99.90
17128;DHT22;8679;50.842;4.322;2024-01-15T21:56:50;2.20;99.90
17128;DHT22;8679;50.842;4.322;2024-01-15T21:59:15;2.20;99.90
17128;DHT22;8679;50.842;4.322;2024-01-15T22:01:41;2.20;99.90
17128;DHT22;8679;50.842;4.322;2024-01-15T22:04:07;2.20;99.90
17128;DHT22;8679;50.842;4.322;2024-01-15T22:06:33;2.20;99.90
17128;DHT22;8679;50.842;4.322;2024-01-15T22:09:01;2.20;99.90
17128;DHT22;8679;50.842;4.322;2024-01-15T22:11:27;2.20;99.90
17128;DHT22;8679;50.842;4.322;2024-01-15T22:13:53;2.20;99.90
17128;DHT22;8679;50.842;4.322;2024-01-15T22:16:18;2.10;99.90
17128;DHT22;8679;50.842;4.322;2024-01-15T22:18:44;2.10;99.90
17128;DHT22;8679;50.842;4.322;2024-01-15T22:21:11;2.10;99.90
17128;DHT22;8679;50.842;4.322;2024-01-15T22:23:36;2.10;99.90
17128;DHT22;8679;50.842;4.322;2024-01-15T22:26:02;2.00;99.90
17128;DHT22;8679;50.842;4.322;2024-01-15T22:28:30;2.00;99.90
17128;DHT22;8679;50.842;4.322;2024-01-15T22:30:56;2.00;99.90
17128;DHT22;8679;50.842;4.322;2024-01-15T22:33:22;2.00;99.90
17128;DHT22;8679;50.842;4.322;2024-01-15T22:35:47;2.00;99.90
17128;DHT22;8679;50.842;4.322;2024-01-15T22:38:13;2.00;99.90
17128;DHT22;8679;50.842;4.322;2024-01-15T22:40:39;2.00;99.90
17128;DHT22;8679;50.842;4.322;2024-01-15T22:43:04;2.00;99.90
17128;DHT22;8679;50.842;4.322;2024-01-15T22:45:30;2.00;99.90
17128;DHT22;8679;50.842;4.322;2024-01-15T22:47:56;2.10;99.90
17128;DHT22;8679;50.842;4.322;2024-01-15T22:50:21;2.10;99.90
17128;DHT22;8679;50.842;4.322;2024-01-15T22:52:47;2.10;99.90
17128;DHT22;8679;50.842;4.322;2024-01-15T22:55:14;2.10;99.90
17128;DHT22;8679;50.842;4.322;2024-01-15T22:57:39;2.10;99.90
17128;DHT22;8679;50.842;4.322;2024-01-15T23:00:05;2.00;99.90
17128;DHT22;8679;50.842;4.322;2024-01-15T23:02:47;2.10;99.90
17128;DHT22;8679;50.842;4.322;2024-01-15T23:05:13;2.10;99.90
17128;DHT22;8679;50.842;4.322;2024-01-15T23:07:39;2.10;99.90
17128;DHT22;8679;50.842;4.322;2024-01-15T23:10:07;2.10;99.90
17128;DHT22;8679;50.842;4.322;2024-01-15T23:12:37;2.10;99.90
17128;DHT22;8679;50.842;4.322;2024-01-15T23:15:04;2.10;99.90
17128;DHT22;8679;50.842;4.322;2024-01-15T23:17:32;2.10;99.90
17128;DHT22;8679;50.842;4.322;2024-01-15T23:19:57;2.10;99.90
17128;DHT22;8679;50.842;4.322;2024-01-15T23:22:23;2.10;99.90
17128;DHT22;8679;50.842;4.322;2024-01-15T23:24:50;2.10;99.90
17128;DHT22;8679;50.842;4.322;2024-01-15T23:27:15;2.00;99.90
17128;DHT22;8679;50.842;4.322;2024-01-15T23:29:42;2.00;99.90
17128;DHT22;8679;50.842;4.322;2024-01-15T23:32:08;2.00;99.90
17128;DHT22;8679;50.842;4.322;2024-01-15T23:34:36;1.90;99.90
17128;DHT22;8679;50.842;4.322;2024-01-15T23:37:02;1.90;99.90
17128;DHT22;8679;50.842;4.322;2024-01-15T23:39:28;1.90;99.90
17128;DHT22;8679;50.842;4.322;2024-01-15T23:41:54;1.90;99.90
17128;DHT22;8679;50.842;4.322;2024-01-15T23:44:20;1.90;99.90
17128;DHT22;8679;50.842;4.322;2024-01-15T23:46:47;1.80;99.90
17128;DHT22;8679;50.842;4.322;2024-01-15T23:49:12;1.80;99.90
17128;DHT22;8679;50.842;4.322;2024-01-15T23:51:39;1.80;99.90
17128;DHT22;8679;50.842;4.322;2024-01-15T23:54:04;1.80;99.90
17128;DHT22;8679;50.842;4.322;2024-01-15T23:56:36;1.80;99.90
17128;DHT22;8679;50.842;4.322;2024-01-15T23:59:01;1.70;99.90
